sensor_id;sensor_type;location;lat;lon;timestamp;P1;durP1;ratioP1;P2;durP2;ratioP2
55212;SDS011;41083;52.932;6.674;2023-02-22T00:00:24;10.00;;;4.72;;
55212;SDS011;41083;52.932;6.674;2023-02-22T00:03:12;12.00;;;4.25;;
55212;SDS011;41083;52.932;6.674;2023-02-22T00:05:50;14.10;;;3.83;;
55212;SDS011;41083;52.932;6.674;2023-02-22T00:08:18;11.35;;;3.90;;
55212;SDS011;41083;52.932;6.674;2023-02-22T00:10:44;12.23;;;3.60;;
55212;SDS011;41083;52.932;6.674;2023-02-22T00:13:11;12.65;;;4.20;;
55212;SDS011;41083;52.932;6.674;2023-02-22T00:15:38;11.88;;;3.67;;
55212;SDS011;41083;52.932;6.674;2023-02-22T00:18:08;12.63;;;4.72;;
55212;SDS011;41083;52.932;6.674;2023-02-22T00:20:37;11.98;;;4.50;;
55212;SDS011;41083;52.932;6.674;2023-02-22T00:23:03;10.38;;;4.30;;
55212;SDS011;41083;52.932;6.674;2023-02-22T00:25:31;16.00;;;5.10;;
55212;SDS011;41083;52.932;6.674;2023-02-22T00:27:57;11.27;;;4.70;;
55212;SDS011;41083;52.932;6.674;2023-02-22T00:30:24;16.83;;;5.03;;
55212;SDS011;41083;52.932;6.674;2023-02-22T00:32:52;12.95;;;4.07;;
55212;SDS011;41083;52.932;6.674;2023-02-22T00:35:20;14.05;;;4.32;;
55212;SDS011;41083;52.932;6.674;2023-02-22T00:37:48;13.00;;;4.03;;
55212;SDS011;41083;52.932;6.674;2023-02-22T00:40:17;14.13;;;4.97;;
55212;SDS011;41083;52.932;6.674;2023-02-22T00:42:45;15.95;;;5.05;;
55212;SDS011;41083;52.932;6.674;2023-02-22T00:45:10;12.80;;;4.88;;
55212;SDS011;41083;52.932;6.674;2023-02-22T00:47:37;16.45;;;5.40;;
55212;SDS011;41083;52.932;6.674;2023-02-22T00:50:03;16.17;;;5.18;;
55212;SDS011;41083;52.932;6.674;2023-02-22T00:52:29;11.00;;;3.92;;
55212;SDS011;41083;52.932;6.674;2023-02-22T00:54:55;13.02;;;4.25;;
55212;SDS011;41083;52.932;6.674;2023-02-22T00:57:22;12.77;;;5.72;;
55212;SDS011;41083;52.932;6.674;2023-02-22T00:59:48;10.60;;;4.68;;
55212;SDS011;41083;52.932;6.674;2023-02-22T01:02:14;14.77;;;4.70;;
55212;SDS011;41083;52.932;6.674;2023-02-22T01:04:40;10.43;;;4.55;;
55212;SDS011;41083;52.932;6.674;2023-02-22T01:07:06;13.95;;;4.60;;
55212;SDS011;41083;52.932;6.674;2023-02-22T01:09:31;14.85;;;4.68;;
55212;SDS011;41083;52.932;6.674;2023-02-22T01:11:58;12.10;;;5.03;;
55212;SDS011;41083;52.932;6.674;2023-02-22T01:14:25;12.90;;;4.13;;
55212;SDS011;41083;52.932;6.674;2023-02-22T01:16:52;10.68;;;4.00;;
55212;SDS011;41083;52.932;6.674;2023-02-22T01:19:19;14.32;;;4.90;;
55212;SDS011;41083;52.932;6.674;2023-02-22T01:21:46;15.05;;;5.10;;
55212;SDS011;41083;52.932;6.674;2023-02-22T01:24:13;12.05;;;5.68;;
55212;SDS011;41083;52.932;6.674;2023-02-22T01:26:41;11.35;;;4.20;;
55212;SDS011;41083;52.932;6.674;2023-02-22T01:29:07;14.00;;;4.88;;
55212;SDS011;41083;52.932;6.674;2023-02-22T01:31:39;10.18;;;4.15;;
55212;SDS011;41083;52.932;6.674;2023-02-22T01:34:14;11.07;;;3.60;;
55212;SDS011;41083;52.932;6.674;2023-02-22T01:36:41;12.45;;;4.13;;
55212;SDS011;41083;52.932;6.674;2023-02-22T01:39:06;16.10;;;5.43;;
55212;SDS011;41083;52.932;6.674;2023-02-22T01:41:34;13.50;;;4.22;;
55212;SDS011;41083;52.932;6.674;2023-02-22T01:47:05;12.27;;;3.72;;
55212;SDS011;41083;52.932;6.674;2023-02-22T01:49:43;11.90;;;3.78;;
55212;SDS011;41083;52.932;6.674;2023-02-22T01:52:12;13.10;;;4.90;;
55212;SDS011;41083;52.932;6.674;2023-02-22T01:54:42;12.90;;;4.55;;
55212;SDS011;41083;52.932;6.674;2023-02-22T01:57:13;14.45;;;4.57;;
55212;SDS011;41083;52.932;6.674;2023-02-22T01:59:52;14.95;;;4.63;;
55212;SDS011;41083;52.932;6.674;2023-02-22T02:02:20;14.40;;;4.57;;
55212;SDS011;41083;52.932;6.674;2023-02-22T02:04:49;13.35;;;4.72;;
55212;SDS011;41083;52.932;6.674;2023-02-22T02:07:18;14.25;;;5.25;;
55212;SDS011;41083;52.932;6.674;2023-02-22T02:12:16;10.52;;;3.88;;
55212;SDS011;41083;52.932;6.674;2023-02-22T02:14:43;15.70;;;5.00;;
55212;SDS011;41083;52.932;6.674;2023-02-22T02:17:11;11.80;;;4.72;;
55212;SDS011;41083;52.932;6.674;2023-02-22T02:22:46;14.93;;;5.63;;
55212;SDS011;41083;52.932;6.674;2023-02-22T02:25:31;12.68;;;4.57;;
55212;SDS011;41083;52.932;6.674;2023-02-22T02:30:55;12.57;;;3.97;;
55212;SDS011;41083;52.932;6.674;2023-02-22T02:33:57;13.07;;;4.90;;
55212;SDS011;41083;52.932;6.674;2023-02-22T02:39:23;12.93;;;4.65;;
55212;SDS011;41083;52.932;6.674;2023-02-22T02:41:53;16.08;;;5.30;;
55212;SDS011;41083;52.932;6.674;2023-02-22T02:44:25;15.70;;;4.85;;
55212;SDS011;41083;52.932;6.674;2023-02-22T02:49:29;13.30;;;5.30;;
55212;SDS011;41083;52.932;6.674;2023-02-22T02:52:02;11.73;;;4.53;;
55212;SDS011;41083;52.932;6.674;2023-02-22T02:54:29;14.38;;;5.10;;
55212;SDS011;41083;52.932;6.674;2023-02-22T02:56:56;14.27;;;5.38;;
55212;SDS011;41083;52.932;6.674;2023-02-22T02:59:26;16.30;;;5.75;;
55212;SDS011;41083;52.932;6.674;2023-02-22T03:04:47;19.85;;;4.95;;
55212;SDS011;41083;52.932;6.674;2023-02-22T03:15:43;15.07;;;4.47;;
55212;SDS011;41083;52.932;6.674;2023-02-22T03:21:22;11.45;;;4.93;;
55212;SDS011;41083;52.932;6.674;2023-02-22T03:26:39;14.52;;;5.32;;
55212;SDS011;41083;52.932;6.674;2023-02-22T03:29:07;15.25;;;5.57;;
55212;SDS011;41083;52.932;6.674;2023-02-22T03:31:39;14.38;;;4.93;;
55212;SDS011;41083;52.932;6.674;2023-02-22T03:34:13;13.43;;;4.97;;
55212;SDS011;41083;52.932;6.674;2023-02-22T03:37:20;12.60;;;5.25;;
55212;SDS011;41083;52.932;6.674;2023-02-22T03:39:42;17.02;;;5.05;;
55212;SDS011;41083;52.932;6.674;2023-02-22T03:42:14;14.15;;;4.95;;
55212;SDS011;41083;52.932;6.674;2023-02-22T03:44:47;14.02;;;4.90;;
55212;SDS011;41083;52.932;6.674;2023-02-22T03:47:19;13.75;;;5.57;;
55212;SDS011;41083;52.932;6.674;2023-02-22T03:49:51;17.80;;;5.38;;
55212;SDS011;41083;52.932;6.674;2023-02-22T03:52:24;16.33;;;5.47;;
55212;SDS011;41083;52.932;6.674;2023-02-22T03:54:50;15.13;;;5.65;;
55212;SDS011;41083;52.932;6.674;2023-02-22T03:57:34;16.73;;;5.28;;
55212;SDS011;41083;52.932;6.674;2023-02-22T04:00:03;19.30;;;5.17;;
55212;SDS011;41083;52.932;6.674;2023-02-22T04:02:31;17.95;;;6.43;;
55212;SDS011;41083;52.932;6.674;2023-02-22T04:04:56;16.05;;;5.88;;
55212;SDS011;41083;52.932;6.674;2023-02-22T04:07:22;14.88;;;5.03;;
55212;SDS011;41083;52.932;6.674;2023-02-22T04:09:48;19.88;;;5.32;;
55212;SDS011;41083;52.932;6.674;2023-02-22T04:12:13;14.15;;;5.07;;
55212;SDS011;41083;52.932;6.674;2023-02-22T04:14:39;15.75;;;5.38;;
55212;SDS011;41083;52.932;6.674;2023-02-22T04:17:05;18.42;;;5.53;;
55212;SDS011;41083;52.932;6.674;2023-02-22T04:19:30;15.40;;;5.78;;
55212;SDS011;41083;52.932;6.674;2023-02-22T04:21:56;15.20;;;5.60;;
55212;SDS011;41083;52.932;6.674;2023-02-22T04:24:22;22.45;;;6.78;;
55212;SDS011;41083;52.932;6.674;2023-02-22T04:26:47;17.45;;;6.40;;
55212;SDS011;41083;52.932;6.674;2023-02-22T04:29:13;18.75;;;6.43;;
55212;SDS011;41083;52.932;6.674;2023-02-22T04:31:39;24.17;;;7.10;;
55212;SDS011;41083;52.932;6.674;2023-02-22T04:34:05;23.45;;;7.15;;
55212;SDS011;41083;52.932;6.674;2023-02-22T04:36:30;20.15;;;7.13;;
55212;SDS011;41083;52.932;6.674;2023-02-22T04:38:57;22.08;;;7.70;;
55212;SDS011;41083;52.932;6.674;2023-02-22T04:41:23;27.13;;;7.55;;
55212;SDS011;41083;52.932;6.674;2023-02-22T04:43:49;22.42;;;8.10;;
55212;SDS011;41083;52.932;6.674;2023-02-22T04:46:14;26.67;;;7.72;;
55212;SDS011;41083;52.932;6.674;2023-02-22T04:48:40;29.27;;;8.48;;
55212;SDS011;41083;52.932;6.674;2023-02-22T04:51:07;23.92;;;7.40;;
55212;SDS011;41083;52.932;6.674;2023-02-22T04:53:32;24.92;;;8.10;;
55212;SDS011;41083;52.932;6.674;2023-02-22T04:55:58;29.02;;;8.15;;
55212;SDS011;41083;52.932;6.674;2023-02-22T04:58:23;21.98;;;7.28;;
55212;SDS011;41083;52.932;6.674;2023-02-22T05:00:49;26.63;;;8.77;;
55212;SDS011;41083;52.932;6.674;2023-02-22T05:03:15;25.45;;;8.85;;
55212;SDS011;41083;52.932;6.674;2023-02-22T05:05:40;22.83;;;8.57;;
55212;SDS011;41083;52.932;6.674;2023-02-22T05:08:06;30.88;;;9.27;;
55212;SDS011;41083;52.932;6.674;2023-02-22T05:10:32;25.00;;;8.18;;
55212;SDS011;41083;52.932;6.674;2023-02-22T05:12:57;22.60;;;7.13;;
55212;SDS011;41083;52.932;6.674;2023-02-22T05:15:23;27.95;;;9.80;;
55212;SDS011;41083;52.932;6.674;2023-02-22T05:17:49;27.80;;;7.22;;
55212;SDS011;41083;52.932;6.674;2023-02-22T05:22:52;26.55;;;9.40;;
55212;SDS011;41083;52.932;6.674;2023-02-22T05:25:21;29.23;;;8.23;;
55212;SDS011;41083;52.932;6.674;2023-02-22T05:27:48;26.85;;;7.43;;
55212;SDS011;41083;52.932;6.674;2023-02-22T05:30:15;22.60;;;7.75;;
55212;SDS011;41083;52.932;6.674;2023-02-22T05:32:41;27.20;;;9.50;;
55212;SDS011;41083;52.932;6.674;2023-02-22T05:35:06;31.17;;;9.95;;
55212;SDS011;41083;52.932;6.674;2023-02-22T05:37:32;26.52;;;8.82;;
55212;SDS011;41083;52.932;6.674;2023-02-22T05:39:58;34.65;;;10.23;;
55212;SDS011;41083;52.932;6.674;2023-02-22T05:42:23;25.80;;;8.15;;
55212;SDS011;41083;52.932;6.674;2023-02-22T05:44:49;25.90;;;9.35;;
55212;SDS011;41083;52.932;6.674;2023-02-22T05:47:15;25.60;;;9.20;;
55212;SDS011;41083;52.932;6.674;2023-02-22T05:49:40;34.10;;;9.02;;
55212;SDS011;41083;52.932;6.674;2023-02-22T05:52:06;27.77;;;9.52;;
55212;SDS011;41083;52.932;6.674;2023-02-22T05:54:31;26.05;;;8.50;;
55212;SDS011;41083;52.932;6.674;2023-02-22T05:56:57;27.92;;;9.45;;
55212;SDS011;41083;52.932;6.674;2023-02-22T05:59:22;22.67;;;8.43;;
55212;SDS011;41083;52.932;6.674;2023-02-22T06:01:48;29.98;;;8.10;;
55212;SDS011;41083;52.932;6.674;2023-02-22T06:04:14;30.55;;;9.80;;
55212;SDS011;41083;52.932;6.674;2023-02-22T06:06:39;28.20;;;8.85;;
55212;SDS011;41083;52.932;6.674;2023-02-22T06:09:05;36.13;;;9.20;;
55212;SDS011;41083;52.932;6.674;2023-02-22T06:11:30;27.45;;;8.50;;
55212;SDS011;41083;52.932;6.674;2023-02-22T06:13:56;36.88;;;10.00;;
55212;SDS011;41083;52.932;6.674;2023-02-22T06:16:22;28.48;;;8.20;;
55212;SDS011;41083;52.932;6.674;2023-02-22T06:18:48;27.42;;;8.75;;
55212;SDS011;41083;52.932;6.674;2023-02-22T06:21:14;26.45;;;8.15;;
55212;SDS011;41083;52.932;6.674;2023-02-22T06:23:39;31.85;;;10.35;;
55212;SDS011;41083;52.932;6.674;2023-02-22T06:26:05;32.42;;;9.77;;
55212;SDS011;41083;52.932;6.674;2023-02-22T06:28:31;30.48;;;10.23;;
55212;SDS011;41083;52.932;6.674;2023-02-22T06:30:56;26.25;;;8.98;;
55212;SDS011;41083;52.932;6.674;2023-02-22T06:33:22;28.25;;;9.43;;
55212;SDS011;41083;52.932;6.674;2023-02-22T06:35:47;31.33;;;10.02;;
55212;SDS011;41083;52.932;6.674;2023-02-22T06:38:20;35.38;;;9.35;;
55212;SDS011;41083;52.932;6.674;2023-02-22T06:40:47;31.73;;;11.15;;
55212;SDS011;41083;52.932;6.674;2023-02-22T06:43:12;27.50;;;9.60;;
55212;SDS011;41083;52.932;6.674;2023-02-22T06:45:38;31.10;;;9.88;;
55212;SDS011;41083;52.932;6.674;2023-02-22T06:48:03;36.42;;;10.25;;
55212;SDS011;41083;52.932;6.674;2023-02-22T06:50:29;34.70;;;9.82;;
55212;SDS011;41083;52.932;6.674;2023-02-22T06:52:55;32.08;;;9.82;;
55212;SDS011;41083;52.932;6.674;2023-02-22T06:55:26;34.17;;;10.00;;
55212;SDS011;41083;52.932;6.674;2023-02-22T06:57:53;33.22;;;10.40;;
55212;SDS011;41083;52.932;6.674;2023-02-22T07:00:20;38.22;;;11.25;;
55212;SDS011;41083;52.932;6.674;2023-02-22T07:02:47;35.33;;;10.43;;
55212;SDS011;41083;52.932;6.674;2023-02-22T07:05:14;27.55;;;10.05;;
55212;SDS011;41083;52.932;6.674;2023-02-22T07:07:41;29.13;;;10.13;;
55212;SDS011;41083;52.932;6.674;2023-02-22T07:10:08;36.85;;;9.15;;
55212;SDS011;41083;52.932;6.674;2023-02-22T07:12:39;27.65;;;9.52;;
55212;SDS011;41083;52.932;6.674;2023-02-22T07:15:05;33.90;;;8.68;;
55212;SDS011;41083;52.932;6.674;2023-02-22T07:17:31;30.67;;;8.48;;
55212;SDS011;41083;52.932;6.674;2023-02-22T07:19:56;29.67;;;8.25;;
55212;SDS011;41083;52.932;6.674;2023-02-22T07:22:22;31.00;;;9.30;;
55212;SDS011;41083;52.932;6.674;2023-02-22T07:24:48;37.33;;;9.95;;
55212;SDS011;41083;52.932;6.674;2023-02-22T07:27:13;32.75;;;9.45;;
55212;SDS011;41083;52.932;6.674;2023-02-22T07:29:40;30.75;;;9.23;;
55212;SDS011;41083;52.932;6.674;2023-02-22T07:32:07;39.00;;;9.88;;
55212;SDS011;41083;52.932;6.674;2023-02-22T07:34:32;31.95;;;8.93;;
55212;SDS011;41083;52.932;6.674;2023-02-22T07:36:58;34.20;;;9.88;;
55212;SDS011;41083;52.932;6.674;2023-02-22T07:39:24;34.67;;;11.00;;
55212;SDS011;41083;52.932;6.674;2023-02-22T07:41:49;30.13;;;9.73;;
55212;SDS011;41083;52.932;6.674;2023-02-22T07:44:15;32.70;;;10.32;;
55212;SDS011;41083;52.932;6.674;2023-02-22T07:46:41;30.02;;;9.27;;
55212;SDS011;41083;52.932;6.674;2023-02-22T07:49:12;33.60;;;9.50;;
55212;SDS011;41083;52.932;6.674;2023-02-22T07:51:38;30.55;;;9.13;;
55212;SDS011;41083;52.932;6.674;2023-02-22T07:54:03;29.80;;;8.52;;
55212;SDS011;41083;52.932;6.674;2023-02-22T07:56:29;33.70;;;8.40;;
55212;SDS011;41083;52.932;6.674;2023-02-22T07:58:54;37.35;;;10.15;;
55212;SDS011;41083;52.932;6.674;2023-02-22T08:01:20;44.03;;;10.77;;
55212;SDS011;41083;52.932;6.674;2023-02-22T08:03:46;29.77;;;9.40;;
55212;SDS011;41083;52.932;6.674;2023-02-22T08:06:11;31.48;;;9.05;;
55212;SDS011;41083;52.932;6.674;2023-02-22T08:08:37;36.67;;;10.50;;
55212;SDS011;41083;52.932;6.674;2023-02-22T08:11:03;32.88;;;9.32;;
55212;SDS011;41083;52.932;6.674;2023-02-22T08:13:29;30.95;;;8.75;;
55212;SDS011;41083;52.932;6.674;2023-02-22T08:15:55;35.25;;;10.30;;
55212;SDS011;41083;52.932;6.674;2023-02-22T08:18:21;36.70;;;10.68;;
55212;SDS011;41083;52.932;6.674;2023-02-22T08:20:48;31.38;;;9.38;;
55212;SDS011;41083;52.932;6.674;2023-02-22T08:23:16;31.30;;;9.13;;
55212;SDS011;41083;52.932;6.674;2023-02-22T08:25:42;39.85;;;10.38;;
55212;SDS011;41083;52.932;6.674;2023-02-22T08:28:09;39.70;;;10.63;;
55212;SDS011;41083;52.932;6.674;2023-02-22T08:30:39;33.17;;;9.52;;
55212;SDS011;41083;52.932;6.674;2023-02-22T08:33:08;30.23;;;9.82;;
55212;SDS011;41083;52.932;6.674;2023-02-22T08:35:38;39.63;;;9.85;;
55212;SDS011;41083;52.932;6.674;2023-02-22T08:38:05;34.60;;;9.40;;
55212;SDS011;41083;52.932;6.674;2023-02-22T08:40:32;35.30;;;10.82;;
55212;SDS011;41083;52.932;6.674;2023-02-22T08:42:59;36.38;;;10.55;;
55212;SDS011;41083;52.932;6.674;2023-02-22T08:45:25;37.70;;;9.10;;
55212;SDS011;41083;52.932;6.674;2023-02-22T08:47:52;35.17;;;10.02;;
55212;SDS011;41083;52.932;6.674;2023-02-22T08:50:19;33.13;;;9.68;;
55212;SDS011;41083;52.932;6.674;2023-02-22T08:52:48;35.30;;;10.55;;
55212;SDS011;41083;52.932;6.674;2023-02-22T08:55:22;31.30;;;9.73;;
55212;SDS011;41083;52.932;6.674;2023-02-22T08:57:49;39.85;;;9.90;;
55212;SDS011;41083;52.932;6.674;2023-02-22T09:00:15;39.40;;;11.38;;
55212;SDS011;41083;52.932;6.674;2023-02-22T09:02:45;36.28;;;10.60;;
55212;SDS011;41083;52.932;6.674;2023-02-22T09:05:10;39.08;;;11.70;;
55212;SDS011;41083;52.932;6.674;2023-02-22T09:07:39;36.47;;;10.02;;
55212;SDS011;41083;52.932;6.674;2023-02-22T09:10:06;35.95;;;10.25;;
55212;SDS011;41083;52.932;6.674;2023-02-22T09:12:32;41.60;;;11.05;;
55212;SDS011;41083;52.932;6.674;2023-02-22T09:14:58;34.97;;;11.00;;
55212;SDS011;41083;52.932;6.674;2023-02-22T09:17:23;36.67;;;10.07;;
55212;SDS011;41083;52.932;6.674;2023-02-22T09:19:49;35.17;;;10.93;;
55212;SDS011;41083;52.932;6.674;2023-02-22T09:22:14;38.70;;;11.27;;
55212;SDS011;41083;52.932;6.674;2023-02-22T09:24:40;35.03;;;10.75;;
55212;SDS011;41083;52.932;6.674;2023-02-22T09:27:07;42.50;;;11.18;;
55212;SDS011;41083;52.932;6.674;2023-02-22T09:29:34;38.97;;;10.77;;
55212;SDS011;41083;52.932;6.674;2023-02-22T09:32:00;35.38;;;10.63;;
55212;SDS011;41083;52.932;6.674;2023-02-22T09:34:25;38.35;;;11.60;;
55212;SDS011;41083;52.932;6.674;2023-02-22T09:36:54;38.83;;;10.90;;
55212;SDS011;41083;52.932;6.674;2023-02-22T09:39:23;35.83;;;10.63;;
55212;SDS011;41083;52.932;6.674;2023-02-22T09:42:36;43.80;;;12.52;;
55212;SDS011;41083;52.932;6.674;2023-02-22T09:47:19;49.60;;;12.05;;
55212;SDS011;41083;52.932;6.674;2023-02-22T09:49:59;35.47;;;9.82;;
55212;SDS011;41083;52.932;6.674;2023-02-22T09:52:30;37.42;;;10.10;;
55212;SDS011;41083;52.932;6.674;2023-02-22T09:55:08;41.10;;;11.32;;
55212;SDS011;41083;52.932;6.674;2023-02-22T09:57:43;35.10;;;10.80;;
55212;SDS011;41083;52.932;6.674;2023-02-22T10:00:17;39.13;;;11.63;;
55212;SDS011;41083;52.932;6.674;2023-02-22T10:02:53;45.53;;;12.05;;
55212;SDS011;41083;52.932;6.674;2023-02-22T10:05:33;41.20;;;11.00;;
55212;SDS011;41083;52.932;6.674;2023-02-22T10:08:10;34.05;;;10.07;;
55212;SDS011;41083;52.932;6.674;2023-02-22T10:10:41;44.13;;;11.20;;
55212;SDS011;41083;52.932;6.674;2023-02-22T10:15:53;31.15;;;9.27;;
55212;SDS011;41083;52.932;6.674;2023-02-22T10:26:33;35.92;;;9.35;;
55212;SDS011;41083;52.932;6.674;2023-02-22T10:31:41;41.00;;;11.73;;
55212;SDS011;41083;52.932;6.674;2023-02-22T10:34:11;30.45;;;9.27;;
55212;SDS011;41083;52.932;6.674;2023-02-22T10:36:40;35.13;;;9.20;;
55212;SDS011;41083;52.932;6.674;2023-02-22T10:39:12;38.47;;;10.80;;
55212;SDS011;41083;52.932;6.674;2023-02-22T10:41:51;39.35;;;10.57;;
55212;SDS011;41083;52.932;6.674;2023-02-22T10:44:19;35.65;;;10.57;;
55212;SDS011;41083;52.932;6.674;2023-02-22T10:46:45;40.30;;;10.13;;
55212;SDS011;41083;52.932;6.674;2023-02-22T10:49:13;31.55;;;9.65;;
55212;SDS011;41083;52.932;6.674;2023-02-22T10:51:50;41.88;;;11.43;;
55212;SDS011;41083;52.932;6.674;2023-02-22T10:54:25;34.47;;;9.60;;
55212;SDS011;41083;52.932;6.674;2023-02-22T10:56:56;30.80;;;8.68;;
55212;SDS011;41083;52.932;6.674;2023-02-22T10:59:26;33.33;;;9.77;;
55212;SDS011;41083;52.932;6.674;2023-02-22T11:01:54;36.83;;;8.45;;
55212;SDS011;41083;52.932;6.674;2023-02-22T11:04:20;36.30;;;9.50;;
55212;SDS011;41083;52.932;6.674;2023-02-22T11:06:47;29.25;;;8.35;;
55212;SDS011;41083;52.932;6.674;2023-02-22T11:09:41;42.33;;;9.77;;
55212;SDS011;41083;52.932;6.674;2023-02-22T11:12:16;38.67;;;9.95;;
55212;SDS011;41083;52.932;6.674;2023-02-22T11:14:56;31.23;;;10.10;;
55212;SDS011;41083;52.932;6.674;2023-02-22T11:17:47;31.52;;;8.30;;
55212;SDS011;41083;52.932;6.674;2023-02-22T11:20:18;39.58;;;9.27;;
55212;SDS011;41083;52.932;6.674;2023-02-22T11:22:52;28.48;;;8.82;;
55212;SDS011;41083;52.932;6.674;2023-02-22T11:25:58;29.08;;;8.15;;
55212;SDS011;41083;52.932;6.674;2023-02-22T11:28:29;30.52;;;7.28;;
55212;SDS011;41083;52.932;6.674;2023-02-22T11:30:57;27.45;;;8.77;;
55212;SDS011;41083;52.932;6.674;2023-02-22T11:33:32;27.55;;;7.57;;
55212;SDS011;41083;52.932;6.674;2023-02-22T11:35:59;29.50;;;9.13;;
55212;SDS011;41083;52.932;6.674;2023-02-22T11:38:32;25.60;;;7.57;;
55212;SDS011;41083;52.932;6.674;2023-02-22T11:41:04;27.02;;;7.05;;
55212;SDS011;41083;52.932;6.674;2023-02-22T11:43:48;24.63;;;8.15;;
55212;SDS011;41083;52.932;6.674;2023-02-22T11:46:21;31.33;;;9.48;;
55212;SDS011;41083;52.932;6.674;2023-02-22T11:48:57;29.52;;;8.88;;
55212;SDS011;41083;52.932;6.674;2023-02-22T11:51:33;25.77;;;7.38;;
55212;SDS011;41083;52.932;6.674;2023-02-22T11:54:25;30.30;;;7.78;;
55212;SDS011;41083;52.932;6.674;2023-02-22T11:56:58;34.55;;;9.23;;
55212;SDS011;41083;52.932;6.674;2023-02-22T11:59:54;35.42;;;10.75;;
55212;SDS011;41083;52.932;6.674;2023-02-22T12:12:15;23.13;;;8.57;;
55212;SDS011;41083;52.932;6.674;2023-02-22T12:22:55;35.35;;;7.82;;
55212;SDS011;41083;52.932;6.674;2023-02-22T12:25:53;31.55;;;8.05;;
55212;SDS011;41083;52.932;6.674;2023-02-22T12:28:33;22.33;;;7.40;;
55212;SDS011;41083;52.932;6.674;2023-02-22T12:31:37;32.75;;;8.35;;
55212;SDS011;41083;52.932;6.674;2023-02-22T12:36:52;28.95;;;6.55;;
55212;SDS011;41083;52.932;6.674;2023-02-22T12:39:23;24.65;;;7.07;;
55212;SDS011;41083;52.932;6.674;2023-02-22T12:42:00;32.65;;;8.85;;
55212;SDS011;41083;52.932;6.674;2023-02-22T12:44:36;26.08;;;8.15;;
55212;SDS011;41083;52.932;6.674;2023-02-22T12:47:05;37.65;;;9.98;;
55212;SDS011;41083;52.932;6.674;2023-02-22T12:49:33;29.95;;;9.50;;
55212;SDS011;41083;52.932;6.674;2023-02-22T12:59:55;27.60;;;7.13;;
55212;SDS011;41083;52.932;6.674;2023-02-22T13:02:42;27.52;;;8.35;;
55212;SDS011;41083;52.932;6.674;2023-02-22T13:05:33;24.20;;;7.18;;
55212;SDS011;41083;52.932;6.674;2023-02-22T13:08:20;21.40;;;6.80;;
55212;SDS011;41083;52.932;6.674;2023-02-22T13:10:55;29.58;;;8.05;;
55212;SDS011;41083;52.932;6.674;2023-02-22T13:13:48;23.52;;;7.22;;
55212;SDS011;41083;52.932;6.674;2023-02-22T13:19:26;26.60;;;7.25;;
55212;SDS011;41083;52.932;6.674;2023-02-22T13:21:56;28.48;;;8.25;;
55212;SDS011;41083;52.932;6.674;2023-02-22T13:24:31;29.15;;;8.18;;
55212;SDS011;41083;52.932;6.674;2023-02-22T13:27:24;31.77;;;8.98;;
55212;SDS011;41083;52.932;6.674;2023-02-22T13:29:56;25.08;;;8.55;;
55212;SDS011;41083;52.932;6.674;2023-02-22T13:43:26;31.08;;;8.13;;
55212;SDS011;41083;52.932;6.674;2023-02-22T13:51:42;22.30;;;6.63;;
55212;SDS011;41083;52.932;6.674;2023-02-22T13:54:20;24.27;;;7.65;;
55212;SDS011;41083;52.932;6.674;2023-02-22T13:56:48;21.80;;;7.57;;
55212;SDS011;41083;52.932;6.674;2023-02-22T13:59:34;22.45;;;7.18;;
55212;SDS011;41083;52.932;6.674;2023-02-22T14:02:02;29.30;;;7.80;;
55212;SDS011;41083;52.932;6.674;2023-02-22T14:07:02;29.55;;;7.78;;
55212;SDS011;41083;52.932;6.674;2023-02-22T14:09:52;22.98;;;7.35;;
55212;SDS011;41083;52.932;6.674;2023-02-22T14:15:28;25.87;;;7.17;;
55212;SDS011;41083;52.932;6.674;2023-02-22T14:17:48;26.52;;;7.35;;
55212;SDS011;41083;52.932;6.674;2023-02-22T14:20:25;23.33;;;7.60;;
55212;SDS011;41083;52.932;6.674;2023-02-22T14:25:54;23.38;;;6.88;;
55212;SDS011;41083;52.932;6.674;2023-02-22T14:28:41;19.85;;;6.85;;
55212;SDS011;41083;52.932;6.674;2023-02-22T14:31:15;18.55;;;6.55;;
55212;SDS011;41083;52.932;6.674;2023-02-22T14:36:43;20.70;;;7.45;;
55212;SDS011;41083;52.932;6.674;2023-02-22T14:39:24;22.33;;;7.57;;
55212;SDS011;41083;52.932;6.674;2023-02-22T14:42:42;26.23;;;6.85;;
55212;SDS011;41083;52.932;6.674;2023-02-22T14:47:38;16.80;;;6.72;;
55212;SDS011;41083;52.932;6.674;2023-02-22T14:50:36;21.05;;;6.85;;
55212;SDS011;41083;52.932;6.674;2023-02-22T15:01:28;21.20;;;7.35;;
55212;SDS011;41083;52.932;6.674;2023-02-22T15:03:58;21.45;;;6.03;;
55212;SDS011;41083;52.932;6.674;2023-02-22T15:06:43;21.92;;;7.40;;
55212;SDS011;41083;52.932;6.674;2023-02-22T15:09:17;20.40;;;7.15;;
55212;SDS011;41083;52.932;6.674;2023-02-22T15:11:50;19.15;;;6.80;;
55212;SDS011;41083;52.932;6.674;2023-02-22T15:14:22;21.52;;;6.97;;
55212;SDS011;41083;52.932;6.674;2023-02-22T15:16:51;22.08;;;6.57;;
55212;SDS011;41083;52.932;6.674;2023-02-22T15:19:28;16.10;;;6.22;;
55212;SDS011;41083;52.932;6.674;2023-02-22T15:21:57;27.10;;;8.40;;
55212;SDS011;41083;52.932;6.674;2023-02-22T15:24:42;18.20;;;7.20;;
55212;SDS011;41083;52.932;6.674;2023-02-22T15:29:39;25.63;;;7.03;;
55212;SDS011;41083;52.932;6.674;2023-02-22T15:32:29;22.55;;;6.43;;
55212;SDS011;41083;52.932;6.674;2023-02-22T15:35:15;20.42;;;6.88;;
55212;SDS011;41083;52.932;6.674;2023-02-22T15:37:43;21.98;;;6.60;;
55212;SDS011;41083;52.932;6.674;2023-02-22T15:40:15;21.05;;;6.55;;
55212;SDS011;41083;52.932;6.674;2023-02-22T15:42:44;22.67;;;6.75;;
55212;SDS011;41083;52.932;6.674;2023-02-22T15:45:16;21.08;;;6.97;;
55212;SDS011;41083;52.932;6.674;2023-02-22T15:47:44;24.88;;;6.70;;
55212;SDS011;41083;52.932;6.674;2023-02-22T15:50:24;24.00;;;7.28;;
55212;SDS011;41083;52.932;6.674;2023-02-22T15:52:54;23.02;;;8.10;;
55212;SDS011;41083;52.932;6.674;2023-02-22T15:55:46;21.48;;;6.85;;
55212;SDS011;41083;52.932;6.674;2023-02-22T16:00:39;24.85;;;7.97;;
55212;SDS011;41083;52.932;6.674;2023-02-22T16:03:07;21.08;;;6.95;;
55212;SDS011;41083;52.932;6.674;2023-02-22T16:05:40;22.08;;;8.80;;
55212;SDS011;41083;52.932;6.674;2023-02-22T16:08:18;20.05;;;7.47;;
55212;SDS011;41083;52.932;6.674;2023-02-22T16:10:57;24.73;;;8.32;;
55212;SDS011;41083;52.932;6.674;2023-02-22T16:13:31;20.27;;;6.85;;
55212;SDS011;41083;52.932;6.674;2023-02-22T16:16:00;22.67;;;8.05;;
55212;SDS011;41083;52.932;6.674;2023-02-22T16:18:32;19.35;;;6.63;;
55212;SDS011;41083;52.932;6.674;2023-02-22T16:21:00;20.08;;;6.97;;
55212;SDS011;41083;52.932;6.674;2023-02-22T16:23:44;22.95;;;6.82;;
55212;SDS011;41083;52.932;6.674;2023-02-22T16:29:01;22.77;;;7.22;;
55212;SDS011;41083;52.932;6.674;2023-02-22T16:31:35;16.30;;;5.70;;
55212;SDS011;41083;52.932;6.674;2023-02-22T16:34:04;18.20;;;6.60;;
55212;SDS011;41083;52.932;6.674;2023-02-22T16:36:41;19.70;;;6.70;;
55212;SDS011;41083;52.932;6.674;2023-02-22T16:39:13;18.30;;;8.07;;
55212;SDS011;41083;52.932;6.674;2023-02-22T16:41:46;19.45;;;7.82;;
55212;SDS011;41083;52.932;6.674;2023-02-22T16:44:12;15.52;;;6.22;;
55212;SDS011;41083;52.932;6.674;2023-02-22T16:46:38;17.08;;;5.68;;
55212;SDS011;41083;52.932;6.674;2023-02-22T16:49:05;20.58;;;7.00;;
55212;SDS011;41083;52.932;6.674;2023-02-22T16:51:55;17.30;;;6.55;;
55212;SDS011;41083;52.932;6.674;2023-02-22T16:54:27;21.77;;;7.15;;
55212;SDS011;41083;52.932;6.674;2023-02-22T16:56:58;18.77;;;6.65;;
55212;SDS011;41083;52.932;6.674;2023-02-22T16:59:26;23.27;;;7.35;;
55212;SDS011;41083;52.932;6.674;2023-02-22T17:01:54;16.17;;;6.03;;
55212;SDS011;41083;52.932;6.674;2023-02-22T17:04:23;20.50;;;6.40;;